Flight Track Log - Related Links

Times and Time Zones

All times are in EDT time to prevent confusion due to time zone crossing. See the RSP58 flight status page for this flight to view local times or setup timezone preferences in your user account.

Time Position Orientation Groundspeed Altitude Reporting Facility
EDT Latitude Longitude Course Direction KTS MPH feet Rate Location/Type
Fri 12:55:17 PM 38.8042 -97.6522 249° West 108 124 2,700  Level Kansas City Center
Fri 12:56:19 PM 38.7856 -97.7125 248° West 182 209 4,700 2,129 Climbing Kansas City Center
Fri 12:57:21 PM 38.7617 -97.7858 247° West 212 244 7,100 2,323 Climbing Kansas City Center
Fri 12:58:23 PM 38.7369 -97.8586 246° West 225 259 9,500 2,129 Climbing Kansas City Center
Fri 12:59:25 PM 38.7108 -97.9364 247° West 236 272 11,500 2,032 Climbing Kansas City Center
Fri 01:00:00 PM 38.5494 -98.3578 249° West  Level FlightAware Approximate
Fri 01:00:27 PM 38.6844 -98.0147 247° West 240 276 13,700  Level Kansas City Center
Fri 01:01:29 PM 38.6578 -98.0950 247° West 245 282 15,700 1,951 Climbing Kansas City Center
Fri 01:02:30 PM 38.6303 -98.1792 247° West 256 295 17,700 1,984 Climbing Kansas City Center
Fri 01:03:33 PM 38.5961 -98.2828 247° West 264 304 19,800 1,872 Climbing Kansas City Center
Fri 01:04:35 PM 38.5653 -98.3733 246° West 277 319 21,600 1,742 Climbing Kansas City Center
Fri 01:05:37 PM 38.5342 -98.4672 247° West 288 331 23,400 1,645 Climbing Kansas City Center
Fri 01:06:39 PM 38.5022 -98.5622 247° West 293 337 25,000 1,548 Climbing Kansas City Center
Fri 01:07:41 PM 38.4692 -98.6583 246° West 298 343 26,600 1,403 Climbing Kansas City Center
Fri 01:08:43 PM 38.4361 -98.7589 247° West 306 352 27,900 1,403 Climbing Kansas City Center
Fri 01:09:45 PM 38.3931 -98.8814 246° West 316 364 29,500 1,306 Climbing Kansas City Center
Fri 01:10:47 PM 38.3586 -98.9853 247° West 319 367 30,600 1,113 Climbing Kansas City Center
Fri 01:11:49 PM 38.3231 -99.0906 247° West 323 372 31,800 1,113 Climbing Kansas City Center
Fri 01:12:51 PM 38.2856 -99.1956 246° West 324 373 32,900 1,065 Climbing Kansas City Center
Fri 01:13:53 PM 38.2497 -99.2997 246° West 323 372 34,000 919 Climbing Kansas City Center
Fri 01:14:55 PM 38.2133 -99.4033 246° West 322 371 34,800 919 Climbing Kansas City Center
Fri 01:15:57 PM 38.1686 -99.5314 246° West 325 374 35,900 581 Climbing Kansas City Center
Fri 01:16:59 PM 38.1336 -99.6347 247° West 329 379 36,000 48 Climbing Kansas City Center
Fri 01:18:01 PM 38.0886 -99.7617 246° West 348 400 36,000  Level Kansas City Center
Fri 01:19:03 PM 38.0492 -99.8750 246° West 362 417 36,000  Level Kansas City Center
Fri 01:20:05 PM 38.0086 -99.9886 246° West 367 422 36,000  Level Kansas City Center
Fri 01:21:07 PM 37.9617 -100.1189 245° Southwest 366 421 36,000  Level Kansas City Center
Fri 01:22:09 PM 37.9222 -100.2317 246° West 366 421 36,000  Level Kansas City Center
Fri 01:23:11 PM 37.8758 -100.3611 246° West 363 418 36,000  Level Kansas City Center
Fri 01:24:13 PM 37.8358 -100.4728 246° West 363 418 36,000  Level Kansas City Center
Fri 01:25:15 PM 37.7886 -100.6033 245° Southwest 365 420 36,000  Level Kansas City Center
Fri 01:26:17 PM 37.7486 -100.7150 246° West 365 420 36,000  Level Kansas City Center
Fri 01:27:19 PM 37.7036 -100.8383 245° Southwest 371 427 36,000  Level Kansas City Center
Fri 01:28:21 PM 37.6539 -100.9722 245° Southwest 374 430 36,000  Level Kansas City Center
Fri 01:29:23 PM 37.6125 -101.0839 245° Southwest 370 426 36,000  Level Kansas City Center
Fri 01:30:25 PM 37.5650 -101.2144 245° Southwest 368 423 36,000  Level Kansas City Center
Fri 01:31:27 PM 37.5236 -101.3256 245° Southwest 367 422 36,000  Level Kansas City Center
Fri 01:32:29 PM 37.4753 -101.4547 245° Southwest 366 421 36,000  Level Kansas City Center
Fri 01:33:31 PM 37.4344 -101.5669 245° Southwest 367 422 36,000  Level Kansas City Center
Fri 01:34:33 PM 37.3856 -101.6986 245° Southwest 370 426 36,000  Level Kansas City Center
Fri 01:35:35 PM 37.3428 -101.8106 244° Southwest 371 427 36,000  Level Kansas City Center
Fri 01:36:49 PM 37.2858 -101.9628 245° Southwest 376 433 36,000  Level Albuquerque Center
Fri 01:37:51 PM 37.2428 -102.0764 245° Southwest 377 434 36,000  Level Albuquerque Center
Fri 01:38:53 PM 37.1953 -102.2028 245° Southwest 377 434 36,000  Level Albuquerque Center
Fri 01:39:55 PM 37.1531 -102.3172 245° Southwest 378 435 36,000  Level Albuquerque Center
Fri 01:40:57 PM 37.0983 -102.4567 244° Southwest 380 437 36,000  Level Albuquerque Center
Fri 01:41:59 PM 37.0553 -102.5650 244° Southwest 381 438 36,000  Level Albuquerque Center
Fri 01:43:01 PM 37.0053 -102.6978 245° Southwest 378 435 36,000  Level Albuquerque Center
Fri 01:44:03 PM 36.9608 -102.8100 244° Southwest 375 432 36,000  Level Albuquerque Center
Fri 01:45:05 PM 36.9114 -102.9386 244° Southwest 370 426 36,000  Level Albuquerque Center
Fri 01:46:07 PM 36.8678 -103.0494 244° Southwest 371 427 36,000  Level Albuquerque Center
Fri 01:47:10 PM 36.8156 -103.1800 243° Southwest 375 432 36,000  Level Albuquerque Center
Fri 01:48:12 PM 36.7722 -103.2914 243° Southwest 373 429 36,000  Level Albuquerque Center
Fri 01:49:00 PM 36.7434 -103.3562 243° Southwest  Level FlightAware Approximate
Fri 01:49:14 PM 36.7206 -103.4231 244° Southwest 375 432 36,000  Level Albuquerque Center
Fri 01:50:16 PM 36.6767 -103.5347 244° Southwest 374 430 36,000  Level Albuquerque Center
Fri 01:51:18 PM 36.6322 -103.6447 243° Southwest 374 430 36,000  Level Albuquerque Center
Fri 01:52:20 PM 36.5772 -103.7797 243° Southwest 372 428 36,000  Level Albuquerque Center
Fri 01:53:22 PM 36.5308 -103.8983 244° Southwest 376 433 36,000  Level Albuquerque Center
Fri 01:54:24 PM 36.4844 -104.0153 244° Southwest 376 433 36,000  Level Albuquerque Center
Fri 01:55:26 PM 36.4369 -104.1297 243° Southwest 372 428 36,000  Level Albuquerque Center
Fri 01:56:28 PM 36.3903 -104.2442 243° Southwest 370 426 36,000  Level Albuquerque Center
Fri 01:57:30 PM 36.3419 -104.3592 242° Southwest 373 429 36,000  Level Albuquerque Center
Fri 01:58:32 PM 36.2953 -104.4747 243° Southwest 373 429 36,000 -97 Level Albuquerque Center
Fri 01:59:34 PM 36.2414 -104.6075 243° Southwest 369 425 35,800 -581 Descending Albuquerque Center
Fri 02:00:36 PM 36.1917 -104.7264 243° Southwest 379 436 34,800 -1,258 Descending Albuquerque Center
Fri 02:01:38 PM 36.1422 -104.8469 243° Southwest 388 447 33,200 -2,032 Descending Albuquerque Center
Fri 02:02:40 PM 36.0914 -104.9681 243° Southwest 393 452 30,600 -2,613 Descending Albuquerque Center
Fri 02:03:42 PM 36.0428 -105.0825 242° Southwest 381 438 27,800 -2,855 Descending Albuquerque Center
Fri 02:04:44 PM 35.9947 -105.2000 243° Southwest 381 438 24,700 -3,242 Descending Albuquerque Center
Fri 02:05:46 PM 35.9378 -105.3322 242° Southwest 375 432 21,100 -3,048 Descending Albuquerque Center
Fri 02:06:48 PM 35.8936 -105.4383 243° Southwest 355 409 18,400 -2,323 Descending Albuquerque Center
Fri 02:07:50 PM 35.8719 -105.5456 256° West 336 387 16,300 -1,645 Descending Albuquerque Center
Fri 02:08:52 PM 35.8506 -105.6569 257° West 333 383 15,000 -677 Descending Albuquerque Center
Fri 02:09:54 PM 35.8306 -105.7594 256° West 314 361 14,900  Descending Albuquerque Center
Fri 02:10:56 PM 35.8111 -105.8458 255° West 273 314 15,000 -484 Climbing Albuquerque Center
Fri 02:11:58 PM 35.7772 -105.9231 242° Southwest 259 298 13,900 -1,258 Descending Albuquerque Center
Fri 02:13:00 PM 35.7394 -105.9906 235° Southwest 205 236 12,400 -1,887 Descending Albuquerque Center
Fri 02:14:02 PM 35.6997 -106.0222 213° Southwest 183 211 10,000 -2,323 Descending Albuquerque Center
Fri 02:15:04 PM 35.6600 -106.0536 213° Southwest 174 200 7,600 -1,597 Descending Albuquerque Center
Fri 02:16:06 PM 35.6283 -106.0781 212° Southwest 168 193 6,700 -871 Descending Albuquerque Center

Login

Don't have an account? Register now (free) for customized features, flight alerts, and more!